Bimbo, Central African Republic
Current Conditions -  °F | °C
As of 2:00 PM on Friday 24 Oct 2014 (Local Time) from FEFF Reporting Station
Scattered Clouds Scattered Clouds  
Wind Chill: 91°   Ceiling: Unl
Heat Index: 100°   Visibility: 6mi
Dew Point: 73°   Wind: 6mph
Humidity: 55%   Direction: 170°S
Pressure: 29.77"   Gusts: NA
Location:  4.3°N, 18.54°E
Report Text: FEFF 241300Z 17005KT 140V220 9999 SCT030 SCT300 33/23 Q1008 NOSIG
Loading
Personal Weather Stations






























Interactive Weather Map
Tropical Storm Tracking
New forecast layout! Learn more

10-Day Weather Forecast

Advertisements
Track Severe Weather on mobile